sensor_id;sensor_type;location;lat;lon;timestamp;P1;durP1;ratioP1;P2;durP2;ratioP2
76959;SDS011;65897;0.000;0.000;2022-12-07T19:26:56;10.63;;;4.93;;
76959;SDS011;65897;0.000;0.000;2022-12-07T19:29:27;10.27;;;4.88;;
76959;SDS011;65897;0.000;0.000;2022-12-07T19:31:57;11.10;;;4.82;;
76959;SDS011;65897;0.000;0.000;2022-12-07T19:39:47;5.32;;;3.60;;
76959;SDS011;65897;0.000;0.000;2022-12-07T19:42:17;5.13;;;3.65;;
76959;SDS011;65897;0.000;0.000;2022-12-07T19:44:46;4.03;;;3.08;;
76959;SDS011;65897;0.000;0.000;2022-12-07T19:47:16;5.05;;;3.35;;
76959;SDS011;65897;0.000;0.000;2022-12-07T19:49:45;4.25;;;3.40;;
76959;SDS011;65897;0.000;0.000;2022-12-07T19:52:15;4.95;;;3.35;;
76959;SDS011;65897;0.000;0.000;2022-12-07T19:54:47;5.07;;;3.10;;
76959;SDS011;65897;0.000;0.000;2022-12-07T19:57:16;5.63;;;3.72;;
76959;SDS011;65897;0.000;0.000;2022-12-07T19:59:46;5.80;;;3.40;;
76959;SDS011;65897;0.000;0.000;2022-12-07T20:02:15;5.80;;;3.58;;
76959;SDS011;65897;0.000;0.000;2022-12-07T20:04:45;5.10;;;3.33;;
76959;SDS011;65897;0.000;0.000;2022-12-07T20:07:14;5.60;;;3.35;;
76959;SDS011;65897;0.000;0.000;2022-12-07T20:09:46;5.13;;;3.05;;
76959;SDS011;65897;0.000;0.000;2022-12-07T20:12:16;7.25;;;3.40;;
76959;SDS011;65897;0.000;0.000;2022-12-07T20:14:58;6.20;;;3.40;;
76959;SDS011;65897;0.000;0.000;2022-12-07T20:17:27;5.15;;;2.75;;
76959;SDS011;65897;0.000;0.000;2022-12-07T20:19:57;5.93;;;3.75;;
76959;SDS011;65897;0.000;0.000;2022-12-07T20:22:26;5.47;;;3.47;;
76959;SDS011;65897;0.000;0.000;2022-12-07T20:24:58;6.70;;;4.03;;
76959;SDS011;65897;0.000;0.000;2022-12-07T20:32:34;8.18;;;4.57;;
76959;SDS011;65897;0.000;0.000;2022-12-07T20:35:04;7.60;;;4.25;;
76959;SDS011;65897;0.000;0.000;2022-12-07T20:37:34;8.65;;;3.90;;
76959;SDS011;65897;0.000;0.000;2022-12-07T20:40:04;6.78;;;3.60;;
76959;SDS011;65897;0.000;0.000;2022-12-07T20:42:34;6.40;;;3.63;;
76959;SDS011;65897;0.000;0.000;2022-12-07T20:45:04;8.68;;;3.75;;
76959;SDS011;65897;0.000;0.000;2022-12-07T20:47:38;9.77;;;3.75;;
76959;SDS011;65897;0.000;0.000;2022-12-07T20:50:08;11.38;;;4.50;;
76959;SDS011;65897;0.000;0.000;2022-12-07T20:52:38;8.60;;;3.70;;
76959;SDS011;65897;0.000;0.000;2022-12-07T20:55:07;7.00;;;3.42;;
76959;SDS011;65897;0.000;0.000;2022-12-07T20:57:37;10.63;;;3.88;;
76959;SDS011;65897;0.000;0.000;2022-12-07T21:00:07;4.88;;;2.85;;
76959;SDS011;65897;0.000;0.000;2022-12-07T21:02:40;8.65;;;3.75;;
76959;SDS011;65897;0.000;0.000;2022-12-07T21:05:09;6.63;;;3.60;;
76959;SDS011;65897;0.000;0.000;2022-12-07T21:07:39;7.50;;;3.83;;
76959;SDS011;65897;0.000;0.000;2022-12-07T21:10:09;6.47;;;3.63;;
76959;SDS011;65897;0.000;0.000;2022-12-07T21:12:39;8.23;;;4.43;;
76959;SDS011;65897;0.000;0.000;2022-12-07T21:15:09;6.10;;;3.65;;
76959;SDS011;65897;0.000;0.000;2022-12-07T21:17:41;8.85;;;3.85;;
76959;SDS011;65897;0.000;0.000;2022-12-07T21:20:10;7.97;;;3.45;;
76959;SDS011;65897;0.000;0.000;2022-12-07T21:22:40;8.52;;;3.50;;
76959;SDS011;65897;0.000;0.000;2022-12-07T21:25:09;7.70;;;4.28;;
76959;SDS011;65897;0.000;0.000;2022-12-07T21:27:39;7.00;;;3.80;;
76959;SDS011;65897;0.000;0.000;2022-12-07T21:30:09;6.70;;;3.67;;
76959;SDS011;65897;0.000;0.000;2022-12-07T21:32:41;9.73;;;3.80;;
76959;SDS011;65897;0.000;0.000;2022-12-07T21:35:11;7.38;;;3.92;;
76959;SDS011;65897;0.000;0.000;2022-12-07T21:37:40;9.13;;;4.35;;
76959;SDS011;65897;0.000;0.000;2022-12-07T21:40:10;8.68;;;3.92;;
76959;SDS011;65897;0.000;0.000;2022-12-07T21:42:42;8.52;;;3.53;;
76959;SDS011;65897;0.000;0.000;2022-12-07T21:45:11;8.85;;;4.40;;
76959;SDS011;65897;0.000;0.000;2022-12-07T21:47:43;7.93;;;3.88;;
76959;SDS011;65897;0.000;0.000;2022-12-07T21:50:13;8.35;;;3.97;;
76959;SDS011;65897;0.000;0.000;2022-12-07T21:52:42;8.57;;;4.72;;
76959;SDS011;65897;0.000;0.000;2022-12-07T21:55:11;8.77;;;4.63;;
76959;SDS011;65897;0.000;0.000;2022-12-07T21:57:41;12.23;;;4.20;;
76959;SDS011;65897;0.000;0.000;2022-12-07T22:00:11;9.50;;;4.40;;
76959;SDS011;65897;0.000;0.000;2022-12-07T22:02:44;7.97;;;4.50;;
76959;SDS011;65897;0.000;0.000;2022-12-07T22:05:13;6.63;;;3.78;;
76959;SDS011;65897;0.000;0.000;2022-12-07T22:07:43;10.18;;;4.80;;
76959;SDS011;65897;0.000;0.000;2022-12-07T22:10:12;7.35;;;4.10;;
76959;SDS011;65897;0.000;0.000;2022-12-07T22:12:53;8.73;;;4.35;;
76959;SDS011;65897;0.000;0.000;2022-12-07T22:15:24;8.43;;;3.88;;
76959;SDS011;65897;0.000;0.000;2022-12-07T22:17:55;9.23;;;4.78;;
76959;SDS011;65897;0.000;0.000;2022-12-07T22:20:24;12.15;;;5.03;;
76959;SDS011;65897;0.000;0.000;2022-12-07T22:22:53;7.10;;;4.40;;
76959;SDS011;65897;0.000;0.000;2022-12-07T22:25:23;8.88;;;4.60;;
76959;SDS011;65897;0.000;0.000;2022-12-07T22:27:52;9.65;;;4.50;;
76959;SDS011;65897;0.000;0.000;2022-12-07T22:30:22;9.48;;;4.65;;
76959;SDS011;65897;0.000;0.000;2022-12-07T22:32:51;11.38;;;4.97;;
76959;SDS011;65897;0.000;0.000;2022-12-07T22:35:23;11.65;;;5.03;;
76959;SDS011;65897;0.000;0.000;2022-12-07T22:37:53;9.77;;;4.57;;
76959;SDS011;65897;0.000;0.000;2022-12-07T22:40:22;7.55;;;4.22;;
76959;SDS011;65897;0.000;0.000;2022-12-07T22:42:51;10.43;;;4.78;;
76959;SDS011;65897;0.000;0.000;2022-12-07T22:45:21;8.77;;;4.28;;
76959;SDS011;65897;0.000;0.000;2022-12-07T22:47:50;9.60;;;4.72;;
76959;SDS011;65897;0.000;0.000;2022-12-07T22:50:22;8.13;;;5.05;;
76959;SDS011;65897;0.000;0.000;2022-12-07T22:52:52;10.98;;;5.38;;
76959;SDS011;65897;0.000;0.000;2022-12-07T22:55:22;8.82;;;4.45;;
76959;SDS011;65897;0.000;0.000;2022-12-07T22:57:51;9.63;;;4.97;;
76959;SDS011;65897;0.000;0.000;2022-12-07T23:00:21;9.10;;;4.30;;
76959;SDS011;65897;0.000;0.000;2022-12-07T23:02:50;9.68;;;5.05;;
76959;SDS011;65897;0.000;0.000;2022-12-07T23:05:23;11.52;;;4.30;;
76959;SDS011;65897;0.000;0.000;2022-12-07T23:07:53;8.27;;;4.32;;
76959;SDS011;65897;0.000;0.000;2022-12-07T23:10:22;9.38;;;4.93;;
76959;SDS011;65897;0.000;0.000;2022-12-07T23:12:51;8.77;;;4.47;;
76959;SDS011;65897;0.000;0.000;2022-12-07T23:15:34;10.32;;;5.10;;
76959;SDS011;65897;0.000;0.000;2022-12-07T23:18:04;11.65;;;4.93;;
76959;SDS011;65897;0.000;0.000;2022-12-07T23:20:36;11.45;;;5.47;;
76959;SDS011;65897;0.000;0.000;2022-12-07T23:23:06;11.23;;;5.40;;
76959;SDS011;65897;0.000;0.000;2022-12-07T23:25:35;12.10;;;5.43;;
76959;SDS011;65897;0.000;0.000;2022-12-07T23:28:05;12.88;;;5.90;;
76959;SDS011;65897;0.000;0.000;2022-12-07T23:30:34;9.40;;;5.15;;
76959;SDS011;65897;0.000;0.000;2022-12-07T23:33:03;9.60;;;5.43;;
76959;SDS011;65897;0.000;0.000;2022-12-07T23:35:33;11.00;;;5.10;;
76959;SDS011;65897;0.000;0.000;2022-12-07T23:38:05;11.35;;;4.85;;
76959;SDS011;65897;0.000;0.000;2022-12-07T23:40:35;10.32;;;5.15;;
76959;SDS011;65897;0.000;0.000;2022-12-07T23:43:04;9.10;;;4.82;;
76959;SDS011;65897;0.000;0.000;2022-12-07T23:45:34;8.20;;;4.57;;
76959;SDS011;65897;0.000;0.000;2022-12-07T23:48:03;9.98;;;5.13;;
76959;SDS011;65897;0.000;0.000;2022-12-07T23:50:33;8.98;;;4.38;;
76959;SDS011;65897;0.000;0.000;2022-12-07T23:53:05;8.88;;;4.85;;
76959;SDS011;65897;0.000;0.000;2022-12-07T23:55:34;7.70;;;3.90;;
76959;SDS011;65897;0.000;0.000;2022-12-07T23:58:04;8.90;;;4.88;;
